Atlanta Naval Air Station, Georgia
Current Conditions -  °F | °C
As of 12:58 PM on Sunday 25 Jan 2015 (Local Time) from KMGE Reporting Station
Few Clouds Few Clouds  
Wind Chill: 13°   Ceiling: Unl
Heat Index: 13°   Visibility: 10mi
Dew Point:   Wind: 12mph
Humidity: 45%   Direction: 200°SSW
Pressure: 29.85"   Gusts: 22mph
Location:  33.9252°N, 84.5422°W
Report Text: KMGE 251758Z 20010G19KT 10SM FEW250 13/01 A2985 RMK AO2A SLP111 T01250007 10125 21024 57026 $
Loading
Personal Weather Stations






























Interactive Weather Map New forecast layout! Learn more

10-Day Weather Forecast

Advertisements
Track Severe Weather on mobile